Accueil
METAR-TAF:

METAR-TAF

Aéroports :

Aéroport de Figari Sud Corse

Figari, France

latitude: 41-30N, longitude: 009-06E, altitude: 26 m

Observation

Le bulletin a été fait il y a 25 minutes, à 13:30 UTC
Vent 12 kt de ouest
Température 15°C
Humidité 67%
Pression 1011 hPa
Visibilité 10 km ou plus
Ciel couvert à une hauteur de 6200 ft

METAR: LFKF 191330Z AUTO 27012KT 9999 OVC062 15/09 Q1011 TEMPO RA FEW035TCU

Heure: 14:55 (13:55 UTC)

Prévision

Le bulletin a été fait il y a 5 heures et 55 minutes, à 08:00 UTC
Prévision valable du 19 à 09 UTC au 20 à 09 UTC
Vent 10 kt de ouest
Visibilité 10 km ou plus
Quelques nuages à une hauteur de 3000 ft
Nuages fragmentés à une hauteur de 6000 ft
Nuages fragmentés à une hauteur de 14000 ft
Temporairement
du 19 à 09 UTC au 20 à 07 UTC
Quelques nuages à une hauteur de 3500 ft, Cumulus congestus.
pluie

TAF: LFKF 190800Z 1909/2009 26010KT 9999 FEW030 BKN060 BKN140 TEMPO 1909/2007 RA FEW035TCU

Observations et prévisions météorologiques de plus de 4000 aéroports (messages METAR et TAF).

Les stations disponibles sont représentées par des disques jaunes et rouges sur la carte.

Passer la souris dessus pour voir le nom de la station.

Cliquer dessus pour voir les observations et prévisions météorologiques.

Pour changer de carte: cliquez sur les boutons verts avec une croix noire pour zoomer, sur le bouton vert avec un tiret pour effectuer un zoom arrière, ou sur les flèches vertes pour les cartes adjacentes.


METAR-TAF: